Time;durP1;ratioP1;P1;durP2;ratioP2;P2;SDS_P1;SDS_P2;PMS_P1;PMS_P2;Temp;Humidity;BMP_temperature;BMP_pressure;BME280_temperature;BME280_humidity;BME280_pressure;Samples;Min_cycle;Max_cycle;Signal;HPM_P1;HPM_P2
2020/12/18 00:00:51;;;;;;;40.08;14.75;;;8.60;99.90;;;;;;5026120;28;20431;-89
2020/12/18 00:03:26;;;;;;;39.40;13.80;;;8.70;99.90;;;;;;5016461;28;20684;-89
2020/12/18 00:05:54;;;;;;;31.77;11.83;;;8.70;99.90;;;;;;5016531;28;20166;-89
2020/12/18 00:08:25;;;;;;;36.20;12.27;;;8.70;99.90;;;;;;5016612;28;20230;-89
2020/12/18 00:10:56;;;;;;;34.67;13.10;;;8.70;99.90;;;;;;5015793;28;20201;-91
2020/12/18 00:13:31;;;;;;;38.17;11.20;;;8.70;99.90;;;;;;5016650;28;20193;-90
2020/12/18 00:15:57;;;;;;;36.30;10.77;;;8.70;99.90;;;;;;5014614;28;20267;-89
2020/12/18 00:18:22;;;;;;;33.97;11.77;;;8.70;99.90;;;;;;4998999;28;20192;-90
2020/12/18 00:20:51;;;;;;;38.05;11.45;;;8.80;99.90;;;;;;5016469;28;20180;-88
2020/12/18 00:23:20;;;;;;;31.10;11.63;;;8.80;99.90;;;;;;5017063;28;20181;-89
2020/12/18 00:25:49;;;;;;;30.40;10.70;;;8.70;99.90;;;;;;5018936;28;20182;-88
2020/12/18 00:28:18;;;;;;;34.17;12.37;;;8.70;99.90;;;;;;5037659;28;20165;-90
2020/12/18 00:30:45;;;;;;;22.57;10.10;;;8.60;99.90;;;;;;5037178;28;20181;-88
2020/12/18 00:33:11;;;;;;;32.13;10.60;;;8.60;99.90;;;;;;5032438;28;20169;-89
2020/12/18 00:35:37;;;;;;;35.22;10.13;;;8.70;99.90;;;;;;4997720;28;20307;-89
2020/12/18 00:38:02;;;;;;;27.43;9.10;;;8.60;99.90;;;;;;4996861;28;20218;-89
2020/12/18 00:40:28;;;;;;;24.00;8.27;;;8.60;99.90;;;;;;4981106;28;20200;-88
2020/12/18 00:42:54;;;;;;;17.93;8.20;;;8.60;99.90;;;;;;4981820;28;20173;-89
2020/12/18 00:45:19;;;;;;;21.40;8.80;;;8.70;99.90;;;;;;5037331;28;20200;-88
2020/12/18 00:47:45;;;;;;;20.77;8.93;;;8.60;99.90;;;;;;5037142;28;20157;-92
2020/12/18 00:50:11;;;;;;;21.70;8.47;;;8.60;99.90;;;;;;5010426;28;20177;-88
2020/12/18 00:52:36;;;;;;;21.53;9.77;;;8.60;99.90;;;;;;4998602;28;20204;-89
2020/12/18 00:55:10;;;;;;;25.03;8.33;;;8.60;99.90;;;;;;5000561;28;20202;-89
2020/12/18 00:57:35;;;;;;;18.10;9.27;;;8.50;99.90;;;;;;5017757;28;20240;-88
2020/12/18 01:00:01;;;;;;;30.47;8.67;;;8.50;99.90;;;;;;4984748;28;20275;-89
2020/12/18 01:02:27;;;;;;;21.43;8.87;;;8.50;99.90;;;;;;5000055;28;20621;-90
2020/12/18 01:04:52;;;;;;;18.97;8.37;;;8.50;99.90;;;;;;5000530;28;20189;-88
2020/12/18 01:07:18;;;;;;;31.63;8.33;;;8.40;99.90;;;;;;5016892;28;20215;-89
2020/12/18 01:09:44;;;;;;;21.07;8.57;;;8.40;99.90;;;;;;5001168;28;20534;-90
2020/12/18 01:12:13;;;;;;;34.73;8.07;;;8.50;99.90;;;;;;5008722;28;20188;-89
2020/12/18 01:14:40;;;;;;;22.88;8.52;;;8.40;99.90;;;;;;5018359;28;20672;-88
2020/12/18 01:17:06;;;;;;;19.63;7.03;;;8.40;99.90;;;;;;5019195;28;20211;-88
2020/12/18 01:19:31;;;;;;;22.83;7.43;;;8.40;99.90;;;;;;5020205;28;20259;-88
2020/12/18 01:21:57;;;;;;;19.00;7.22;;;8.50;99.90;;;;;;5037502;28;20247;-89
2020/12/18 01:24:22;;;;;;;15.17;7.20;;;8.50;99.90;;;;;;5035010;28;20189;-89
2020/12/18 01:26:48;;;;;;;13.17;6.10;;;8.50;99.90;;;;;;5002473;28;20207;-89
2020/12/18 01:29:14;;;;;;;17.23;6.60;;;8.40;99.90;;;;;;5000891;28;20191;-89
2020/12/18 01:31:40;;;;;;;15.67;7.13;;;8.40;99.90;;;;;;5000098;28;20169;-88
2020/12/18 01:34:06;;;;;;;17.77;6.27;;;8.40;99.90;;;;;;5017406;28;20180;-89
2020/12/18 01:36:31;;;;;;;27.87;6.60;;;8.40;99.90;;;;;;5017448;28;20207;-89
2020/12/18 01:38:57;;;;;;;9.68;6.65;;;8.40;99.90;;;;;;5016506;28;20243;-90
2020/12/18 01:41:23;;;;;;;13.83;6.87;;;8.40;99.90;;;;;;5015709;28;20168;-89
2020/12/18 01:43:48;;;;;;;25.53;7.23;;;8.40;99.90;;;;;;5015537;28;20180;-89
2020/12/18 01:46:15;;;;;;;15.63;5.63;;;8.40;99.90;;;;;;5015666;28;20192;-89
2020/12/18 01:48:42;;;;;;;25.27;6.53;;;8.40;99.90;;;;;;5015483;28;20185;-89
2020/12/18 01:51:10;;;;;;;12.13;5.70;;;8.40;99.90;;;;;;5015278;28;20614;-90
2020/12/18 01:53:37;;;;;;;20.80;6.30;;;8.50;99.90;;;;;;5015506;28;20184;-89
2020/12/18 01:56:04;;;;;;;9.03;5.17;;;8.50;99.90;;;;;;5016303;28;20204;-90
2020/12/18 01:58:33;;;;;;;21.17;6.30;;;8.50;99.90;;;;;;5015562;28;20538;-89
2020/12/18 02:01:03;;;;;;;18.30;6.10;;;8.50;99.90;;;;;;5015265;28;20263;-89
2020/12/18 02:03:28;;;;;;;23.53;5.90;;;8.50;99.90;;;;;;5016406;28;20187;-90
2020/12/18 02:05:56;;;;;;;10.17;5.43;;;8.60;99.90;;;;;;5019789;28;20256;-89
2020/12/18 02:08:25;;;;;;;13.83;5.67;;;8.60;99.90;;;;;;5014670;28;20205;-90
2020/12/18 02:10:51;;;;;;;14.93;5.57;;;8.60;99.90;;;;;;5016088;28;20199;-89
2020/12/18 02:13:16;;;;;;;19.57;5.37;;;8.60;99.90;;;;;;5015926;28;20610;-89
2020/12/18 02:15:42;;;;;;;16.47;6.23;;;8.60;99.90;;;;;;4979225;28;20205;-89
2020/12/18 02:18:08;;;;;;;24.38;5.35;;;8.70;99.90;;;;;;5012398;28;20187;-90
2020/12/18 02:20:35;;;;;;;28.70;5.88;;;8.70;99.90;;;;;;5014714;28;20177;-90
2020/12/18 02:23:00;;;;;;;17.87;5.43;;;8.70;99.90;;;;;;5015037;28;20231;-89
2020/12/18 02:25:31;;;;;;;20.98;5.25;;;8.60;99.90;;;;;;5014658;28;20184;-90
2020/12/18 02:27:58;;;;;;;8.77;4.47;;;8.60;99.90;;;;;;5015782;28;20244;-91
2020/12/18 02:30:24;;;;;;;21.13;6.00;;;8.60;99.90;;;;;;5014767;28;20191;-90
2020/12/18 02:32:49;;;;;;;14.67;4.93;;;8.60;99.90;;;;;;4998171;28;20180;-89
2020/12/18 02:35:15;;;;;;;11.50;3.93;;;8.60;99.90;;;;;;4998345;28;20173;-89
2020/12/18 02:37:44;;;;;;;19.50;5.90;;;8.70;99.90;;;;;;4998357;28;20200;-90
2020/12/18 02:40:09;;;;;;;19.50;4.97;;;8.70;99.90;;;;;;4999051;28;20177;-90
2020/12/18 02:42:35;;;;;;;16.10;4.67;;;8.70;99.90;;;;;;5014539;28;20594;-90
2020/12/18 02:45:04;;;;;;;15.03;4.27;;;8.70;99.90;;;;;;4998126;28;20204;-89
2020/12/18 02:47:29;;;;;;;22.70;4.72;;;8.70;99.90;;;;;;4998364;28;20177;-89
2020/12/18 02:50:03;;;;;;;19.17;5.40;;;8.80;99.90;;;;;;5014466;28;20199;-89
2020/12/18 02:52:29;;;;;;;21.50;4.55;;;8.80;99.90;;;;;;5019233;28;20201;-89
2020/12/18 02:55:00;;;;;;;22.63;4.70;;;8.70;99.90;;;;;;5038457;28;20161;-86
2020/12/18 02:57:25;;;;;;;15.43;4.43;;;8.70;99.90;;;;;;5037759;28;20185;-89
2020/12/18 02:59:51;;;;;;;18.90;5.30;;;8.70;99.90;;;;;;5034856;28;20181;-89
2020/12/18 03:02:19;;;;;;;14.00;4.03;;;8.70;99.90;;;;;;5014059;28;20193;-89
2020/12/18 03:04:44;;;;;;;13.33;4.43;;;8.80;99.90;;;;;;5015646;28;20183;-89
2020/12/18 03:07:10;;;;;;;14.97;4.40;;;8.80;99.90;;;;;;5014187;28;20169;-89
2020/12/18 03:09:38;;;;;;;17.63;4.10;;;8.80;99.90;;;;;;5014155;28;20196;-89
2020/12/18 03:12:04;;;;;;;22.47;4.80;;;8.80;99.90;;;;;;5037771;28;20204;-89
2020/12/18 03:14:32;;;;;;;14.57;4.23;;;8.70;99.90;;;;;;5037070;28;20176;-89
2020/12/18 03:17:00;;;;;;;15.73;4.13;;;8.70;99.90;;;;;;5029536;28;20228;-89
2020/12/18 03:19:25;;;;;;;18.70;4.27;;;8.70;99.90;;;;;;5014101;28;20180;-88
2020/12/18 03:21:51;;;;;;;16.33;3.90;;;8.60;99.90;;;;;;5014031;28;20626;-89
2020/12/18 03:24:17;;;;;;;9.63;3.90;;;8.60;99.90;;;;;;5013879;28;20264;-89
2020/12/18 03:26:42;;;;;;;17.67;5.10;;;8.60;99.90;;;;;;5013738;28;20173;-88
2020/12/18 03:29:08;;;;;;;12.57;4.00;;;8.60;99.90;;;;;;5013640;28;20569;-89
2020/12/18 03:31:33;;;;;;;17.08;4.15;;;8.60;99.90;;;;;;4997257;28;20197;-89
2020/12/18 03:33:59;;;;;;;18.53;4.33;;;8.60;99.90;;;;;;4997487;28;20207;-90
2020/12/18 03:36:25;;;;;;;25.10;4.77;;;8.70;99.90;;;;;;4977899;28;20201;-90
2020/12/18 03:38:50;;;;;;;11.77;4.53;;;8.60;99.90;;;;;;4997521;28;20176;-89
2020/12/18 03:41:16;;;;;;;18.93;5.20;;;8.60;99.90;;;;;;4997626;28;20177;-89
2020/12/18 03:43:43;;;;;;;12.83;5.27;;;8.60;99.90;;;;;;5014249;28;20184;-89
2020/12/18 03:46:10;;;;;;;16.57;6.10;;;8.60;99.90;;;;;;5013640;28;20183;-90
2020/12/18 03:48:36;;;;;;;16.77;5.63;;;8.60;99.90;;;;;;5013721;28;20208;-89
2020/12/18 03:51:01;;;;;;;20.60;5.90;;;8.60;99.90;;;;;;4997222;28;20192;-88
2020/12/18 03:53:27;;;;;;;18.80;5.93;;;8.60;99.90;;;;;;5013847;28;20695;-90
2020/12/18 03:55:53;;;;;;;10.93;6.10;;;8.60;99.90;;;;;;5014777;28;20216;-89
2020/12/18 03:58:18;;;;;;;13.10;6.23;;;8.60;99.90;;;;;;5013602;28;20211;-89
2020/12/18 04:00:44;;;;;;;14.97;6.03;;;8.70;99.90;;;;;;4997092;28;20526;-89
2020/12/18 04:03:09;;;;;;;20.77;7.05;;;8.80;99.90;;;;;;4977386;28;20177;-90
2020/12/18 04:05:35;;;;;;;15.23;6.57;;;8.80;99.90;;;;;;5006019;28;20614;-90
2020/12/18 04:08:01;;;;;;;16.23;6.95;;;8.80;99.90;;;;;;4997138;28;20184;-90
2020/12/18 04:10:26;;;;;;;17.08;7.28;;;8.80;99.90;;;;;;5013483;28;20581;-90
2020/12/18 04:12:52;;;;;;;19.45;6.72;;;8.80;99.90;;;;;;5014605;28;20177;-90
2020/12/18 04:15:17;;;;;;;14.50;6.57;;;8.80;99.90;;;;;;5029617;28;20175;-90
2020/12/18 04:17:46;;;;;;;12.80;7.33;;;8.90;99.90;;;;;;4997122;28;20693;-89
2020/12/18 04:20:12;;;;;;;19.53;7.07;;;8.90;99.90;;;;;;5014441;28;20623;-90
2020/12/18 04:22:40;;;;;;;14.77;6.83;;;9.00;99.90;;;;;;5013482;28;20234;-91
2020/12/18 04:25:06;;;;;;;20.73;7.43;;;9.00;99.90;;;;;;4997127;28;20178;-89
2020/12/18 04:27:34;;;;;;;12.50;6.37;;;9.10;99.90;;;;;;5016888;28;20180;-90
2020/12/18 04:30:00;;;;;;;12.45;6.93;;;9.10;99.90;;;;;;5018321;28;20184;-90
2020/12/18 04:32:26;;;;;;;17.30;6.87;;;9.10;99.90;;;;;;5016669;28;20399;-90
2020/12/18 04:34:52;;;;;;;21.77;6.47;;;9.20;99.90;;;;;;5017015;28;20173;-89
2020/12/18 04:37:24;;;;;;;10.07;5.90;;;9.20;99.90;;;;;;5018170;28;20201;-90
2020/12/18 04:39:49;;;;;;;18.95;6.95;;;9.30;99.90;;;;;;5016902;28;20260;-89
2020/12/18 04:42:18;;;;;;;17.70;6.53;;;9.20;99.90;;;;;;5018334;28;20299;-90
2020/12/18 04:44:45;;;;;;;16.23;6.40;;;9.30;99.90;;;;;;5017015;28;20173;-90
2020/12/18 04:47:14;;;;;;;15.60;6.05;;;9.40;99.90;;;;;;5016629;28;20173;-90
2020/12/18 04:49:41;;;;;;;15.52;6.28;;;9.50;99.90;;;;;;5016680;28;20173;-89
2020/12/18 04:52:14;;;;;;;17.88;6.43;;;9.50;99.90;;;;;;5033148;28;20176;-90
2020/12/18 04:54:41;;;;;;;17.55;7.20;;;9.50;99.90;;;;;;5016839;28;20169;-89
2020/12/18 04:57:10;;;;;;;27.58;9.48;;;9.50;99.90;;;;;;5016171;28;20231;-90
2020/12/18 04:59:40;;;;;;;11.05;6.35;;;9.50;99.90;;;;;;5017592;28;20200;-90
2020/12/18 05:02:05;;;;;;;15.63;5.80;;;9.60;99.90;;;;;;5016945;28;20180;-90
2020/12/18 05:04:32;;;;;;;16.13;6.05;;;9.60;99.90;;;;;;5016976;28;20165;-89
2020/12/18 05:06:57;;;;;;;23.52;6.38;;;9.70;99.90;;;;;;5017151;28;20172;-88
2020/12/18 05:09:24;;;;;;;14.52;5.47;;;9.70;99.90;;;;;;5024988;28;20164;-92
2020/12/18 05:11:51;;;;;;;19.27;6.70;;;9.80;99.90;;;;;;5041048;28;20149;-90
2020/12/18 05:14:20;;;;;;;10.07;5.55;;;9.80;99.90;;;;;;5040049;28;20199;-93
2020/12/18 05:16:49;;;;;;;15.27;6.15;;;9.80;99.90;;;;;;5040264;28;20193;-89
2020/12/18 05:19:19;;;;;;;17.40;5.60;;;9.80;99.90;;;;;;5040660;28;20160;-87
2020/12/18 05:21:45;;;;;;;23.20;6.03;;;9.80;99.90;;;;;;5039967;28;20149;-89
2020/12/18 05:24:14;;;;;;;18.95;6.80;;;9.90;99.90;;;;;;5040083;28;20184;-90
2020/12/18 05:26:43;;;;;;;19.00;5.68;;;9.80;99.90;;;;;;5039862;28;20175;-90
2020/12/18 05:29:09;;;;;;;19.90;6.28;;;9.70;99.90;;;;;;5039374;28;20180;-91
2020/12/18 05:31:50;;;;;;;12.70;5.45;;;9.70;99.90;;;;;;5028825;28;20177;-89
2020/12/18 05:34:15;;;;;;;13.80;5.32;;;9.70;99.90;;;;;;5019260;28;20176;-89
2020/12/18 05:36:42;;;;;;;17.73;5.82;;;9.70;99.90;;;;;;5022835;28;20204;-91
2020/12/18 05:39:09;;;;;;;17.75;4.60;;;9.80;99.90;;;;;;5038982;28;20165;-89
2020/12/18 05:41:35;;;;;;;10.60;4.25;;;9.80;99.90;;;;;;5039299;28;20164;-89
2020/12/18 05:44:11;;;;;;;13.73;5.18;;;9.80;99.90;;;;;;5031524;28;20203;-90
2020/12/18 05:46:40;;;;;;;18.77;5.38;;;9.70;99.90;;;;;;5020805;28;20504;-90
2020/12/18 05:49:09;;;;;;;15.43;4.68;;;9.90;99.90;;;;;;5016840;28;20502;-90
2020/12/18 05:51:40;;;;;;;14.40;4.75;;;9.90;99.90;;;;;;5016489;28;20173;-90
2020/12/18 05:54:19;;;;;;;12.27;4.60;;;9.90;99.90;;;;;;5016328;28;20201;-90
2020/12/18 05:56:51;;;;;;;15.15;5.55;;;9.80;99.90;;;;;;5018851;28;20196;-90
2020/12/18 05:59:18;;;;;;;9.40;3.67;;;9.80;99.90;;;;;;5017832;28;20161;-91
2020/12/18 06:01:53;;;;;;;7.30;4.43;;;9.80;99.90;;;;;;5017656;28;20181;-90
2020/12/18 06:04:25;;;;;;;9.50;5.00;;;9.70;99.90;;;;;;5018066;28;20177;-91
2020/12/18 06:06:58;;;;;;;13.38;4.55;;;9.70;99.90;;;;;;5018557;28;20169;-91
2020/12/18 06:09:27;;;;;;;19.33;4.68;;;9.80;99.90;;;;;;5021475;28;20165;-89
2020/12/18 06:11:53;;;;;;;21.52;5.30;;;9.90;99.90;;;;;;5021143;28;20177;-90
2020/12/18 06:14:19;;;;;;;12.98;4.95;;;9.90;99.90;;;;;;5017328;28;20602;-91
2020/12/18 06:16:48;;;;;;;12.90;5.15;;;9.90;99.90;;;;;;5017399;28;20561;-90
2020/12/18 06:19:28;;;;;;;14.75;5.82;;;9.90;99.90;;;;;;5016882;28;20203;-89
2020/12/18 06:21:56;;;;;;;11.75;5.38;;;10.00;99.90;;;;;;5014994;28;20176;-90
2020/12/18 06:24:22;;;;;;;8.60;4.88;;;9.90;99.90;;;;;;5014923;28;20271;-90
2020/12/18 06:26:55;;;;;;;16.58;6.10;;;9.90;99.90;;;;;;5014828;28;20177;-90
2020/12/18 06:29:26;;;;;;;17.95;6.68;;;10.00;99.90;;;;;;5014542;28;20199;-90
2020/12/18 06:31:52;;;;;;;15.10;6.65;;;10.00;99.90;;;;;;5015899;28;20180;-89
2020/12/18 06:34:36;;;;;;;16.30;7.57;;;9.90;99.90;;;;;;5014821;28;20177;-90
2020/12/18 06:37:02;;;;;;;15.90;7.05;;;10.00;99.90;;;;;;5016478;28;20301;-89
2020/12/18 06:39:36;;;;;;;15.82;7.10;;;10.10;99.90;;;;;;5015078;28;20262;-91
2020/12/18 06:42:22;;;;;;;16.55;8.20;;;10.10;99.90;;;;;;5014867;28;20173;-89
2020/12/18 06:44:53;;;;;;;22.15;8.02;;;10.10;99.90;;;;;;5014804;28;20622;-89
2020/12/18 06:47:25;;;;;;;21.38;7.63;;;10.20;99.90;;;;;;5014602;28;20250;-90
2020/12/18 06:50:06;;;;;;;18.42;6.68;;;10.30;99.90;;;;;;5013339;28;20176;-89
2020/12/18 06:52:49;;;;;;;15.30;5.75;;;10.30;99.90;;;;;;5015643;28;20159;-90
2020/12/18 06:55:30;;;;;;;11.20;4.65;;;10.30;99.90;;;;;;5014343;28;20172;-89
2020/12/18 06:58:11;;;;;;;19.88;5.22;;;10.30;99.90;;;;;;5014539;28;20187;-90
2020/12/18 07:00:49;;;;;;;10.68;5.25;;;10.30;99.90;;;;;;5014403;28;20259;-90
2020/12/18 07:03:36;;;;;;;11.85;5.13;;;10.30;99.90;;;;;;5014342;28;20561;-89
2020/12/18 07:06:05;;;;;;;20.15;4.88;;;10.30;99.90;;;;;;5014413;28;20512;-90
2020/12/18 07:08:32;;;;;;;15.10;5.53;;;10.40;99.90;;;;;;5014067;28;20235;-91
2020/12/18 07:11:01;;;;;;;15.75;5.05;;;10.40;99.90;;;;;;5015052;28;20180;-89
2020/12/18 07:13:29;;;;;;;19.98;5.70;;;10.30;99.90;;;;;;5014247;28;20223;-89
2020/12/18 07:16:04;;;;;;;16.20;5.50;;;10.20;99.90;;;;;;5015590;28;20719;-92
2020/12/18 07:18:41;;;;;;;16.38;5.03;;;10.20;99.90;;;;;;5014134;28;20528;-89
2020/12/18 07:21:15;;;;;;;13.82;4.70;;;10.30;99.90;;;;;;5030864;28;20169;-92
2020/12/18 07:23:43;;;;;;;20.45;5.10;;;10.30;99.90;;;;;;5014036;28;20176;-89
2020/12/18 07:26:10;;;;;;;17.00;5.82;;;10.30;99.90;;;;;;5013927;28;20185;-90
2020/12/18 07:28:39;;;;;;;17.13;6.00;;;10.30;99.90;;;;;;5014128;28;20165;-89
2020/12/18 07:31:14;;;;;;;11.00;4.75;;;10.30;99.90;;;;;;4981662;28;20184;-90
2020/12/18 07:33:39;;;;;;;15.88;4.95;;;10.20;99.90;;;;;;5013533;28;20189;-90
2020/12/18 07:36:10;;;;;;;11.00;4.07;;;10.30;99.90;;;;;;5013774;28;20280;-89
2020/12/18 07:38:38;;;;;;;12.38;4.93;;;10.30;99.90;;;;;;5013986;28;20251;-90
2020/12/18 07:41:07;;;;;;;13.30;4.60;;;10.40;99.90;;;;;;5013984;28;20165;-89
2020/12/18 07:43:34;;;;;;;13.40;4.63;;;10.40;99.90;;;;;;5013732;28;20198;-90
2020/12/18 07:46:09;;;;;;;7.75;4.22;;;10.40;99.90;;;;;;5014767;28;20173;-90
2020/12/18 07:48:37;;;;;;;10.23;3.92;;;10.50;99.90;;;;;;5037692;28;20173;-82
2020/12/18 07:51:08;;;;;;;22.05;4.57;;;10.50;99.90;;;;;;5037265;28;20165;-94
2020/12/18 07:53:35;;;;;;;15.15;3.92;;;10.50;99.90;;;;;;5036957;28;20157;-91
2020/12/18 07:56:03;;;;;;;15.32;4.40;;;10.50;99.90;;;;;;5014594;28;20201;-90
2020/12/18 07:58:30;;;;;;;13.82;4.28;;;10.50;99.90;;;;;;5014109;28;20168;-90
2020/12/18 08:01:08;;;;;;;7.53;4.00;;;10.50;99.90;;;;;;5015995;28;20640;-91
2020/12/18 08:03:34;;;;;;;10.32;3.85;;;10.40;99.90;;;;;;5017693;28;20231;-91
2020/12/18 08:06:04;;;;;;;15.57;4.05;;;10.40;99.90;;;;;;5041450;28;20187;-91
2020/12/18 08:08:33;;;;;;;9.45;4.25;;;10.30;99.90;;;;;;5041061;28;20189;-91
2020/12/18 08:11:02;;;;;;;16.52;4.25;;;10.30;99.90;;;;;;5047615;28;20177;-91
2020/12/18 08:13:29;;;;;;;14.68;4.20;;;10.20;99.90;;;;;;5017531;28;20177;-90
2020/12/18 08:16:10;;;;;;;11.65;4.43;;;10.00;99.90;;;;;;5019595;28;20232;-90
2020/12/18 08:18:36;;;;;;;11.65;4.18;;;10.10;99.90;;;;;;5017734;28;20179;-91
2020/12/18 08:21:03;;;;;;;12.68;3.33;;;10.10;99.90;;;;;;5019465;28;20173;-91
2020/12/18 08:23:29;;;;;;;12.18;3.65;;;10.10;99.90;;;;;;5018450;28;20177;-91
2020/12/18 08:25:56;;;;;;;10.20;3.45;;;10.10;99.90;;;;;;5001608;28;20185;-91
2020/12/18 08:28:25;;;;;;;11.68;4.15;;;10.20;99.90;;;;;;5002339;28;20223;-90
2020/12/18 08:30:59;;;;;;;12.65;3.53;;;10.30;99.90;;;;;;5019456;28;20185;-91
2020/12/18 08:33:37;;;;;;;11.57;3.63;;;10.30;99.90;;;;;;5018803;28;20676;-90
2020/12/18 08:36:06;;;;;;;17.33;3.95;;;10.40;99.90;;;;;;5017635;28;20188;-89
2020/12/18 08:38:32;;;;;;;7.50;4.03;;;10.50;99.90;;;;;;5018573;28;20169;-89
2020/12/18 08:40:58;;;;;;;8.50;2.70;;;10.50;99.90;;;;;;5002197;28;20172;-90
2020/12/18 08:43:24;;;;;;;11.82;3.50;;;10.50;99.90;;;;;;5021639;28;20172;-91
2020/12/18 08:45:50;;;;;;;10.98;3.15;;;10.50;99.90;;;;;;5003348;28;20185;-92
2020/12/18 08:48:20;;;;;;;14.25;3.28;;;10.60;99.90;;;;;;4986345;28;20187;-90
2020/12/18 08:50:46;;;;;;;9.07;3.17;;;10.70;99.90;;;;;;5023281;28;20171;-92
2020/12/18 08:53:15;;;;;;;8.48;3.03;;;10.70;99.90;;;;;;5005620;28;20180;-92
2020/12/18 08:55:42;;;;;;;11.25;3.33;;;10.90;99.90;;;;;;5019501;28;20204;-91
2020/12/18 08:58:09;;;;;;;8.23;2.80;;;11.80;99.90;;;;;;5018905;28;20196;-90
2020/12/18 09:00:35;;;;;;;9.65;2.58;;;13.40;99.90;;;;;;5017829;28;20173;-92
2020/12/18 09:03:02;;;;;;;11.73;2.60;;;14.70;99.90;;;;;;5016804;28;20184;-91
2020/12/18 09:05:33;;;;;;;9.00;2.75;;;15.70;99.90;;;;;;5016520;28;20184;-91
2020/12/18 09:08:15;;;;;;;13.07;2.30;;;17.00;99.90;;;;;;5016860;28;20186;-92
2020/12/18 09:10:52;;;;;;;8.40;2.20;;;17.70;99.90;;;;;;5016532;28;20569;-92
2020/12/18 09:13:19;;;;;;;4.88;1.95;;;18.40;99.90;;;;;;5005073;28;20197;-91
2020/12/18 09:15:56;;;;;;;8.68;2.58;;;18.80;99.90;;;;;;4997991;28;20204;-91
2020/12/18 09:18:26;;;;;;;8.73;2.25;;;19.20;99.90;;;;;;5015425;28;20606;-91
2020/12/18 09:20:52;;;;;;;9.15;2.50;;;20.10;99.90;;;;;;5016167;28;20195;-91
2020/12/18 09:23:28;;;;;;;9.98;1.95;;;20.60;99.90;;;;;;5017368;28;20173;-92
2020/12/18 09:25:54;;;;;;;8.13;2.63;;;20.00;99.90;;;;;;5016372;28;20564;-92
2020/12/18 09:28:21;;;;;;;9.60;1.85;;;20.00;99.90;;;;;;5016893;28;20180;-92
2020/12/18 09:30:51;;;;;;;7.53;2.20;;;20.40;99.90;;;;;;5016169;28;20196;-91
2020/12/18 09:33:23;;;;;;;10.15;1.90;;;20.60;99.90;;;;;;4979962;28;20182;-92
2020/12/18 09:35:50;;;;;;;10.85;2.20;;;20.10;99.90;;;;;;5012530;28;20216;-91
2020/12/18 09:38:25;;;;;;;4.70;1.95;;;19.50;99.90;;;;;;4996841;28;20208;-92
2020/12/18 09:40:51;;;;;;;7.65;1.77;;;19.30;99.90;;;;;;5012604;28;20236;-92
2020/12/18 09:43:18;;;;;;;5.18;1.77;;;19.80;99.90;;;;;;4995905;28;20247;-84
2020/12/18 09:45:44;;;;;;;10.13;2.70;;;19.90;99.90;;;;;;5004045;28;20235;-84
2020/12/18 09:48:10;;;;;;;8.30;2.00;;;19.20;99.90;;;;;;5015992;28;20181;-85
2020/12/18 09:50:36;;;;;;;6.45;2.00;;;19.40;99.90;;;;;;4997981;28;20614;-80
2020/12/18 09:53:02;;;;;;;4.40;1.70;;;19.60;99.90;;;;;;5015332;28;20185;-91
2020/12/18 09:55:27;;;;;;;5.97;2.22;;;19.20;99.90;;;;;;5015412;28;20180;-91
2020/12/18 09:57:53;;;;;;;6.22;2.40;;;19.60;99.90;;;;;;5015636;28;20173;-91
2020/12/18 10:00:18;;;;;;;5.65;2.22;;;19.40;99.90;;;;;;4996264;28;20173;-91
2020/12/18 10:02:44;;;;;;;10.00;2.83;;;19.30;99.90;;;;;;5015239;28;20177;-90
2020/12/18 10:05:10;;;;;;;9.05;2.72;;;19.50;99.90;;;;;;5015116;28;20176;-90
2020/12/18 10:07:35;;;;;;;5.30;2.80;;;19.20;99.90;;;;;;4999169;28;20513;-91
2020/12/18 10:10:01;;;;;;;4.53;2.38;;;19.00;99.90;;;;;;5015330;28;20168;-91
2020/12/18 10:12:27;;;;;;;4.82;2.58;;;18.20;99.90;;;;;;5033304;28;20173;-91
2020/12/18 10:14:52;;;;;;;5.95;2.40;;;17.80;99.90;;;;;;5039320;28;20185;-93
2020/12/18 10:17:18;;;;;;;4.63;2.15;;;18.10;99.90;;;;;;5021050;28;20193;-91
2020/12/18 10:19:44;;;;;;;9.40;2.35;;;17.90;99.90;;;;;;5016548;28;20189;-91
2020/12/18 10:22:10;;;;;;;4.43;2.30;;;17.10;99.90;;;;;;4997959;28;20188;-91
2020/12/18 10:24:35;;;;;;;9.27;2.35;;;18.40;99.90;;;;;;5007004;28;20173;-91
2020/12/18 10:27:01;;;;;;;6.07;2.42;;;19.30;99.90;;;;;;5014540;28;20180;-90
2020/12/18 10:29:26;;;;;;;6.05;1.88;;;19.70;99.90;;;;;;5015475;28;20195;-91
2020/12/18 10:31:54;;;;;;;6.15;2.10;;;19.80;99.90;;;;;;5034199;28;20183;-91
2020/12/18 10:34:20;;;;;;;2.58;1.58;;;20.30;99.90;;;;;;5022264;28;20199;-93
2020/12/18 10:36:50;;;;;;;3.95;1.73;;;19.60;99.90;;;;;;5040107;28;20223;-92
2020/12/18 10:39:16;;;;;;;4.55;1.70;;;19.10;99.90;;;;;;5003637;28;20288;-91
2020/12/18 10:41:42;;;;;;;3.55;1.52;;;18.50;99.90;;;;;;4996320;28;20275;-92
2020/12/18 10:44:10;;;;;;;7.78;1.70;;;19.60;99.90;;;;;;5014672;28;20514;-90
2020/12/18 10:46:36;;;;;;;3.28;1.40;;;20.20;99.90;;;;;;5014339;28;20173;-91
2020/12/18 10:49:02;;;;;;;4.68;1.63;;;20.80;99.90;;;;;;4997527;28;20177;-92
2020/12/18 10:51:33;;;;;;;11.25;1.45;;;21.20;99.90;;;;;;5030287;28;20266;-92
2020/12/18 10:54:00;;;;;;;5.57;1.50;;;20.90;99.90;;;;;;5014187;28;20176;-91
2020/12/18 10:56:26;;;;;;;4.38;1.58;;;21.30;99.90;;;;;;5015463;28;20208;-92
2020/12/18 10:58:56;;;;;;;7.72;1.55;;;21.40;99.90;;;;;;5010453;28;20185;-92
2020/12/18 11:01:24;;;;;;;4.00;1.55;;;20.80;99.90;;;;;;5004423;28;20664;-91
2020/12/18 11:03:50;;;;;;;1.98;1.15;;;20.40;99.90;;;;;;5015242;28;20177;-91
2020/12/18 11:06:16;;;;;;;2.58;1.13;;;20.50;99.90;;;;;;4997531;28;20235;-91
2020/12/18 11:08:52;;;;;;;;;;;;;;;;;;;;;
2020/12/18 11:11:20;;;;;;;6.53;1.55;;;20.20;99.90;;;;;;5011951;28;20177;-91
2020/12/18 11:13:46;;;;;;;4.70;1.02;;;19.70;99.90;;;;;;5014047;28;20183;-90
2020/12/18 11:16:14;;;;;;;4.32;1.15;;;19.60;99.90;;;;;;5014190;28;20275;-91
2020/12/18 11:18:40;;;;;;;3.05;1.13;;;19.20;99.90;;;;;;5013386;28;20184;-91
2020/12/18 11:21:07;;;;;;;2.13;1.10;;;18.70;99.90;;;;;;5015709;28;20248;-92
2020/12/18 11:23:40;;;;;;;4.30;1.50;;;18.40;99.90;;;;;;5011514;28;20180;-91
2020/12/18 11:26:06;;;;;;;4.68;1.13;;;18.20;99.90;;;;;;4996763;28;20187;-91
2020/12/18 11:28:32;;;;;;;1.05;0.82;;;18.40;99.90;;;;;;5013553;28;20169;-89
2020/12/18 11:31:00;;;;;;;3.35;1.10;;;18.40;99.90;;;;;;5013754;28;20275;-91
2020/12/18 11:33:27;;;;;;;4.82;0.90;;;18.10;99.90;;;;;;5013506;28;20180;-91
2020/12/18 11:35:52;;;;;;;2.05;0.75;;;18.70;99.90;;;;;;5013394;28;20204;-89
2020/12/18 11:38:20;;;;;;;7.28;1.35;;;18.90;99.90;;;;;;4994058;28;20531;-91
2020/12/18 11:40:48;;;;;;;9.13;1.00;;;19.20;99.90;;;;;;5023764;28;20235;-92
2020/12/18 11:43:16;;;;;;;2.67;0.90;;;19.30;99.90;;;;;;5014711;28;20173;-91
2020/12/18 11:46:02;;;;;;;1.75;1.17;;;19.90;99.90;;;;;;4997811;28;20585;-91
2020/12/18 11:48:29;;;;;;;2.83;1.10;;;20.20;99.90;;;;;;4997608;28;20278;-91
2020/12/18 11:51:07;;;;;;;4.72;1.10;;;19.50;99.90;;;;;;5013574;28;20533;-91
2020/12/18 11:53:36;;;;;;;1.60;1.00;;;19.30;99.90;;;;;;5013082;28;20263;-91
2020/12/18 11:56:02;;;;;;;2.20;1.10;;;19.50;99.90;;;;;;5030165;28;20210;-91
2020/12/18 11:58:28;;;;;;;2.63;0.80;;;19.20;99.90;;;;;;4997565;28;20181;-90
2020/12/18 12:00:57;;;;;;;2.60;1.00;;;18.60;99.90;;;;;;5013950;28;20184;-91
2020/12/18 12:03:23;;;;;;;1.50;0.98;;;18.50;99.90;;;;;;5013830;28;20610;-91
2020/12/18 12:05:49;;;;;;;1.25;0.77;;;18.20;99.90;;;;;;5013278;28;20173;-91
2020/12/18 12:08:18;;;;;;;2.58;1.08;;;18.10;99.90;;;;;;5013100;28;20187;-90
2020/12/18 12:10:43;;;;;;;1.05;0.88;;;18.10;99.90;;;;;;5013152;28;20173;-90
2020/12/18 12:13:14;;;;;;;2.42;0.95;;;17.90;99.90;;;;;;5021764;28;20172;-90
2020/12/18 12:15:49;;;;;;;3.53;1.00;;;17.80;99.90;;;;;;5026953;28;20195;-92
2020/12/18 12:18:15;;;;;;;3.65;1.10;;;17.40;99.90;;;;;;5014511;28;20168;-89
2020/12/18 12:20:43;;;;;;;1.95;0.98;;;17.10;99.90;;;;;;5013071;28;20700;-90
2020/12/18 12:23:11;;;;;;;2.63;1.10;;;17.20;99.90;;;;;;5013187;28;20594;-90
2020/12/18 12:25:37;;;;;;;3.80;0.93;;;17.40;99.90;;;;;;4996959;28;20279;-91
2020/12/18 12:28:12;;;;;;;;;;;;;;;;;;;;;
2020/12/18 12:30:38;;;;;;;1.83;1.13;;;17.70;99.90;;;;;;5013724;28;20552;-90
2020/12/18 12:33:06;;;;;;;3.70;1.13;;;18.10;99.90;;;;;;5013532;28;20272;-90
2020/12/18 12:35:32;;;;;;;4.88;1.05;;;17.40;99.90;;;;;;5014671;28;20177;-89
2020/12/18 12:38:00;;;;;;;3.47;0.88;;;16.80;99.90;;;;;;5014272;28;20179;-90
2020/12/18 12:40:29;;;;;;;1.70;0.93;;;17.00;99.90;;;;;;5015534;28;20227;-90
2020/12/18 12:42:55;;;;;;;2.63;1.00;;;17.20;99.90;;;;;;5032741;28;20161;-89
2020/12/18 12:45:20;;;;;;;3.00;1.17;;;17.00;99.90;;;;;;5036900;28;20160;-94
2020/12/18 12:47:49;;;;;;;5.72;1.08;;;17.40;99.90;;;;;;5037544;28;20185;-90
2020/12/18 12:50:15;;;;;;;4.28;1.00;;;17.70;99.90;;;;;;5036618;28;20169;-93
2020/12/18 12:52:43;;;;;;;2.67;1.00;;;17.30;99.90;;;;;;5040197;28;20217;-90